Time;durP1;ratioP1;P1;durP2;ratioP2;P2;SDS_P1;SDS_P2;PMS_P1;PMS_P2;Temp;Humidity;BMP_temperature;BMP_pressure;BME280_temperature;BME280_humidity;BME280_pressure;Samples;Min_cycle;Max_cycle;Signal;HPM_P1;HPM_P2
2024/02/20 00:02:18;;;;;;;8.87;3.70;;;8.70;85.60;;;;;;5032930;28;20741;-72
2024/02/20 00:04:44;;;;;;;7.03;3.80;;;8.80;85.70;;;;;;5032801;28;20189;-73
2024/02/20 00:07:10;;;;;;;7.40;3.60;;;8.80;85.70;;;;;;5033724;28;20203;-73
2024/02/20 00:09:35;;;;;;;8.20;3.73;;;8.70;85.70;;;;;;5031330;28;20185;-70
2024/02/20 00:12:01;;;;;;;7.10;4.37;;;8.70;85.70;;;;;;5031352;28;20701;-73
2024/02/20 00:14:27;;;;;;;10.30;4.10;;;8.70;85.90;;;;;;5041976;28;20181;-73
2024/02/20 00:16:53;;;;;;;7.23;4.20;;;8.70;86.20;;;;;;5035642;28;20187;-74
2024/02/20 00:19:22;;;;;;;10.10;4.10;;;8.70;86.20;;;;;;5033155;28;20423;-74
2024/02/20 00:21:48;;;;;;;8.73;4.20;;;8.80;86.20;;;;;;5031177;28;20988;-71
2024/02/20 00:24:13;;;;;;;6.70;3.70;;;8.80;86.20;;;;;;5037725;28;20435;-73
2024/02/20 00:26:39;;;;;;;6.93;3.30;;;8.80;86.00;;;;;;5038227;28;20451;-75
2024/02/20 00:29:05;;;;;;;12.30;4.63;;;8.80;85.90;;;;;;5047896;28;20200;-72
2024/02/20 00:31:32;;;;;;;7.63;4.03;;;8.80;85.90;;;;;;5030086;28;20447;-73
2024/02/20 00:34:02;;;;;;;7.10;4.00;;;8.80;86.00;;;;;;5051483;28;20935;-73
2024/02/20 00:36:28;;;;;;;7.00;4.00;;;8.80;86.20;;;;;;5049751;28;20447;-73
2024/02/20 00:38:54;;;;;;;10.83;4.70;;;8.90;86.00;;;;;;5049755;28;20450;-73
2024/02/20 00:41:20;;;;;;;10.17;4.63;;;8.80;85.90;;;;;;5039581;28;20471;-71
2024/02/20 00:43:46;;;;;;;8.20;4.20;;;8.80;86.00;;;;;;5041125;28;20419;-74
2024/02/20 00:46:22;;;;;;;8.70;4.67;;;8.80;86.20;;;;;;5034919;28;20228;-72
2024/02/20 00:48:48;;;;;;;6.93;4.17;;;8.80;86.20;;;;;;5037450;28;20811;-74
2024/02/20 00:51:19;;;;;;;12.87;4.33;;;8.80;86.20;;;;;;5031371;28;20471;-72
2024/02/20 00:53:46;;;;;;;7.93;4.40;;;8.80;86.00;;;;;;5036345;28;20443;-73
2024/02/20 00:56:12;;;;;;;7.83;3.13;;;8.80;85.70;;;;;;5033159;28;20566;-73
2024/02/20 00:58:38;;;;;;;6.27;3.47;;;8.80;85.50;;;;;;5035112;28;20519;-72
2024/02/20 01:01:09;;;;;;;5.57;3.17;;;8.80;85.70;;;;;;5026975;28;20566;-74
2024/02/20 01:03:38;;;;;;;6.30;3.50;;;8.70;85.70;;;;;;5033529;28;20432;-72
2024/02/20 01:06:08;;;;;;;7.20;3.40;;;8.70;85.90;;;;;;5028615;28;20455;-72
2024/02/20 01:08:35;;;;;;;6.27;3.20;;;8.70;85.60;;;;;;5029579;28;20420;-72
2024/02/20 01:11:04;;;;;;;4.53;2.43;;;8.70;85.20;;;;;;5027971;28;20466;-73
2024/02/20 01:13:30;;;;;;;5.63;3.03;;;8.70;85.20;;;;;;5030928;28;20420;-74
2024/02/20 01:15:56;;;;;;;6.23;3.03;;;8.70;85.30;;;;;;5036492;28;20420;-74
2024/02/20 01:18:22;;;;;;;4.27;3.00;;;8.70;85.20;;;;;;5028592;28;20450;-75
2024/02/20 01:20:47;;;;;;;5.13;3.17;;;8.60;84.90;;;;;;5028010;28;20324;-75
2024/02/20 01:23:13;;;;;;;6.17;3.40;;;8.50;84.90;;;;;;5030867;28;20181;-73
2024/02/20 01:25:41;;;;;;;8.60;4.10;;;8.60;85.00;;;;;;5033623;28;20760;-74
2024/02/20 01:28:07;;;;;;;5.37;3.13;;;8.70;84.90;;;;;;5030721;28;20185;-73
2024/02/20 01:30:32;;;;;;;6.70;2.90;;;8.80;84.70;;;;;;5033380;28;20459;-72
2024/02/20 01:32:58;;;;;;;7.93;2.90;;;8.70;84.40;;;;;;5035766;28;20421;-72
2024/02/20 01:35:24;;;;;;;7.70;3.30;;;8.70;84.10;;;;;;5035488;28;21485;-72
2024/02/20 01:37:50;;;;;;;5.80;2.90;;;8.80;84.00;;;;;;5031708;28;20181;-72
2024/02/20 01:40:16;;;;;;;7.60;3.17;;;8.60;83.80;;;;;;5030251;28;20181;-73
2024/02/20 01:42:43;;;;;;;9.20;3.00;;;8.70;83.80;;;;;;5031475;28;20184;-72
2024/02/20 01:45:09;;;;;;;10.23;3.50;;;8.70;84.00;;;;;;5034048;28;20459;-73
2024/02/20 01:47:39;;;;;;;8.90;3.30;;;8.60;84.00;;;;;;5031656;28;20413;-74
2024/02/20 01:50:06;;;;;;;6.33;3.27;;;8.50;84.00;;;;;;5033322;28;20420;-71
2024/02/20 01:52:32;;;;;;;5.83;3.27;;;8.50;83.80;;;;;;5022914;28;20670;-72
2024/02/20 01:55:01;;;;;;;5.70;3.40;;;8.60;83.80;;;;;;5033176;28;20419;-72
2024/02/20 01:57:26;;;;;;;6.00;3.23;;;8.60;83.60;;;;;;5036995;28;20173;-73
2024/02/20 01:59:54;;;;;;;7.90;3.87;;;8.50;83.60;;;;;;5039534;28;20419;-72
2024/02/20 02:02:20;;;;;;;6.20;2.93;;;8.60;83.70;;;;;;5038463;28;20296;-73
2024/02/20 02:04:46;;;;;;;6.83;3.17;;;8.60;83.70;;;;;;5033737;28;20526;-71
2024/02/20 02:07:11;;;;;;;7.10;3.40;;;8.60;83.70;;;;;;5034254;28;20204;-71
2024/02/20 02:09:37;;;;;;;8.90;3.07;;;8.60;83.70;;;;;;5032821;28;20440;-71
2024/02/20 02:12:04;;;;;;;7.50;3.90;;;8.60;83.80;;;;;;5028641;28;20201;-72
2024/02/20 02:14:29;;;;;;;6.90;2.97;;;8.50;83.80;;;;;;5024385;28;20182;-73
2024/02/20 02:16:55;;;;;;;10.27;4.23;;;8.50;84.00;;;;;;5029738;28;20847;-71
2024/02/20 02:19:21;;;;;;;5.20;2.80;;;8.60;84.00;;;;;;5033090;28;20677;-72
2024/02/20 02:21:47;;;;;;;6.80;3.23;;;8.60;84.00;;;;;;5029494;28;20211;-74
2024/02/20 02:24:12;;;;;;;6.07;3.20;;;8.60;84.00;;;;;;5033950;28;20185;-73
2024/02/20 02:26:38;;;;;;;7.33;3.50;;;8.60;83.40;;;;;;5031261;28;20563;-72
2024/02/20 02:29:03;;;;;;;9.13;3.63;;;8.60;83.70;;;;;;5032464;28;20181;-72
2024/02/20 02:31:29;;;;;;;5.80;3.40;;;8.50;83.80;;;;;;5027202;28;20224;-72
2024/02/20 02:33:56;;;;;;;4.87;2.80;;;8.50;83.80;;;;;;5035637;28;20180;-73
2024/02/20 02:36:22;;;;;;;8.03;3.43;;;8.40;83.60;;;;;;5031035;28;20412;-72
2024/02/20 02:38:47;;;;;;;7.40;3.50;;;8.40;83.60;;;;;;5031633;28;20487;-70
2024/02/20 02:41:13;;;;;;;10.80;3.27;;;8.50;83.70;;;;;;5027056;28;20452;-72
2024/02/20 02:43:39;;;;;;;7.30;3.23;;;8.50;83.70;;;;;;5036493;28;20678;-73
2024/02/20 02:46:05;;;;;;;9.73;3.90;;;8.50;83.60;;;;;;5033199;28;20256;-72
2024/02/20 02:48:30;;;;;;;10.10;2.93;;;8.50;83.40;;;;;;5024266;28;20444;-73
2024/02/20 02:50:56;;;;;;;7.13;3.00;;;8.40;83.10;;;;;;5030047;28;20200;-70
2024/02/20 02:53:22;;;;;;;9.40;3.10;;;8.40;82.50;;;;;;5021237;28;20184;-70
2024/02/20 02:55:48;;;;;;;5.07;2.83;;;8.40;82.70;;;;;;5025884;28;20185;-71
2024/02/20 02:58:13;;;;;;;16.53;4.03;;;8.40;82.50;;;;;;5031216;28;20420;-71
2024/02/20 03:00:40;;;;;;;9.93;2.80;;;8.40;82.50;;;;;;5028629;28;20468;-71
2024/02/20 03:03:06;;;;;;;8.87;3.23;;;8.40;82.20;;;;;;5023706;28;20626;-71
2024/02/20 03:05:31;;;;;;;7.57;3.37;;;8.40;82.50;;;;;;5021462;28;20539;-71
2024/02/20 03:07:57;;;;;;;9.63;3.57;;;8.40;82.50;;;;;;5030332;28;20658;-71
2024/02/20 03:10:24;;;;;;;6.60;3.00;;;8.50;82.50;;;;;;5027591;28;20225;-72
2024/02/20 03:12:52;;;;;;;7.07;2.90;;;8.40;82.20;;;;;;5015016;28;20174;-70
2024/02/20 03:15:17;;;;;;;18.57;3.43;;;8.40;82.40;;;;;;5034743;28;20424;-71
2024/02/20 03:17:45;;;;;;;7.70;3.00;;;8.40;82.40;;;;;;5029875;28;20454;-72
2024/02/20 03:20:14;;;;;;;10.93;3.13;;;8.40;82.10;;;;;;5029232;28;20722;-72
2024/02/20 03:22:43;;;;;;;5.40;2.90;;;8.40;82.20;;;;;;5025659;28;20489;-71
2024/02/20 03:25:09;;;;;;;7.00;2.93;;;8.40;82.10;;;;;;5031061;28;21051;-72
2024/02/20 03:27:36;;;;;;;11.30;3.37;;;8.30;82.10;;;;;;5033483;28;20507;-72
2024/02/20 03:30:02;;;;;;;7.40;3.67;;;8.30;81.90;;;;;;5029652;28;20271;-73
2024/02/20 03:32:27;;;;;;;7.30;3.30;;;8.30;82.20;;;;;;5022328;28;20472;-70
2024/02/20 03:34:53;;;;;;;7.67;2.83;;;8.40;82.40;;;;;;5031664;28;20482;-71
2024/02/20 03:37:18;;;;;;;9.10;3.47;;;8.40;82.20;;;;;;5033313;28;20252;-72
2024/02/20 03:39:44;;;;;;;9.37;3.70;;;8.40;82.20;;;;;;5032948;28;20180;-72
2024/02/20 03:42:10;;;;;;;5.90;2.83;;;8.40;82.10;;;;;;5026445;28;20228;-73
2024/02/20 03:44:39;;;;;;;6.13;2.90;;;8.40;81.90;;;;;;5033380;28;20182;-71
2024/02/20 03:47:05;;;;;;;4.10;2.90;;;8.40;81.90;;;;;;5033756;28;20259;-72
2024/02/20 03:49:31;;;;;;;8.23;3.10;;;8.30;82.40;;;;;;5036120;28;20428;-72
2024/02/20 03:51:57;;;;;;;7.70;3.30;;;8.30;83.10;;;;;;5037047;28;20533;-71
2024/02/20 03:54:22;;;;;;;6.77;2.90;;;8.20;83.10;;;;;;5035599;28;20559;-72
2024/02/20 03:56:48;;;;;;;6.10;3.10;;;8.20;83.40;;;;;;5038804;28;20208;-71
2024/02/20 03:59:13;;;;;;;6.10;2.97;;;8.20;83.40;;;;;;5039232;28;20181;-73
2024/02/20 04:01:39;;;;;;;5.70;3.40;;;8.20;83.80;;;;;;5042563;28;20337;-73
2024/02/20 04:04:05;;;;;;;11.50;3.13;;;8.10;83.70;;;;;;5033391;28;20208;-71
2024/02/20 04:06:32;;;;;;;8.47;2.90;;;8.00;83.40;;;;;;5041299;28;20551;-72
2024/02/20 04:09:03;;;;;;;13.20;2.90;;;8.10;83.70;;;;;;5047388;28;20188;-72
2024/02/20 04:11:29;;;;;;;6.67;3.10;;;8.10;83.70;;;;;;5033980;28;20506;-72
2024/02/20 04:13:55;;;;;;;11.03;3.50;;;8.10;84.00;;;;;;5031074;28;20408;-70
2024/02/20 04:16:20;;;;;;;15.97;3.50;;;8.10;83.80;;;;;;5030829;28;20473;-70
2024/02/20 04:18:46;;;;;;;6.33;3.20;;;8.10;83.80;;;;;;5033998;28;20178;-75
2024/02/20 04:21:12;;;;;;;7.53;3.37;;;8.10;84.00;;;;;;5026114;28;20217;-73
2024/02/20 04:23:37;;;;;;;8.80;3.63;;;8.10;84.00;;;;;;5023819;28;20196;-71
2024/02/20 04:26:03;;;;;;;9.40;3.20;;;8.00;83.40;;;;;;5029204;28;20575;-71
2024/02/20 04:28:34;;;;;;;10.10;3.00;;;8.00;83.10;;;;;;5026406;28;20194;-72
2024/02/20 04:31:00;;;;;;;8.87;3.40;;;8.00;82.80;;;;;;5028578;28;20206;-75
2024/02/20 04:33:26;;;;;;;15.77;3.60;;;8.00;83.00;;;;;;5031704;28;20823;-72
2024/02/20 04:35:52;;;;;;;7.57;3.47;;;7.90;82.50;;;;;;5034378;28;20416;-72
2024/02/20 04:38:18;;;;;;;11.40;3.40;;;7.80;82.50;;;;;;5033833;28;20189;-73
2024/02/20 04:40:43;;;;;;;7.33;3.10;;;7.90;82.40;;;;;;5028584;28;20234;-74
2024/02/20 04:43:09;;;;;;;7.80;3.40;;;7.90;82.50;;;;;;5030364;28;20189;-72
2024/02/20 04:45:34;;;;;;;16.13;4.77;;;7.90;82.40;;;;;;5034035;28;20212;-72
2024/02/20 04:48:00;;;;;;;7.60;2.70;;;7.80;82.20;;;;;;5033439;28;20202;-74
2024/02/20 04:50:25;;;;;;;9.87;2.97;;;7.80;82.40;;;;;;5030244;28;20692;-72
2024/02/20 04:52:52;;;;;;;9.30;2.80;;;7.80;82.20;;;;;;5034181;28;20184;-72
2024/02/20 04:55:17;;;;;;;7.10;3.07;;;7.80;82.20;;;;;;5033892;28;20224;-72
2024/02/20 04:57:43;;;;;;;8.70;3.37;;;7.90;81.90;;;;;;5064424;28;20887;-72
2024/02/20 05:00:10;;;;;;;8.43;3.17;;;7.90;81.90;;;;;;5032525;28;20196;-73
2024/02/20 05:02:37;;;;;;;11.60;3.00;;;7.80;81.50;;;;;;5032831;28;20189;-72
2024/02/20 05:05:03;;;;;;;6.83;2.97;;;7.90;81.10;;;;;;5035464;28;20755;-70
2024/02/20 05:07:30;;;;;;;7.20;2.80;;;7.90;81.10;;;;;;5037214;28;20518;-71
2024/02/20 05:09:55;;;;;;;8.57;3.43;;;7.90;80.90;;;;;;5034694;28;20408;-73
2024/02/20 05:12:21;;;;;;;10.57;3.00;;;8.00;80.50;;;;;;5028564;28;20830;-71
2024/02/20 05:14:47;;;;;;;12.60;3.63;;;8.00;80.60;;;;;;5033270;28;20196;-71
2024/02/20 05:17:13;;;;;;;6.40;3.20;;;7.90;80.20;;;;;;5034187;28;20181;-72
2024/02/20 05:19:39;;;;;;;15.47;3.10;;;7.90;80.50;;;;;;5032416;28;20411;-71
2024/02/20 05:22:06;;;;;;;6.80;2.60;;;7.80;80.50;;;;;;5028828;28;20452;-73
2024/02/20 05:24:35;;;;;;;7.70;3.40;;;7.80;80.90;;;;;;5033811;28;20188;-72
2024/02/20 05:27:03;;;;;;;12.00;3.53;;;7.80;81.40;;;;;;5041039;28;20811;-71
2024/02/20 05:29:30;;;;;;;9.97;2.73;;;7.80;81.40;;;;;;5041261;28;21025;-73
2024/02/20 05:31:59;;;;;;;5.13;2.80;;;7.80;80.90;;;;;;5033703;28;20994;-73
2024/02/20 05:34:24;;;;;;;14.67;3.07;;;7.70;81.10;;;;;;5045641;28;20514;-73
2024/02/20 05:36:50;;;;;;;9.47;2.70;;;7.70;81.20;;;;;;5034034;28;20420;-72
2024/02/20 05:39:16;;;;;;;9.63;2.90;;;7.70;81.10;;;;;;5030231;28;20189;-74
2024/02/20 05:41:42;;;;;;;9.90;2.83;;;7.70;81.10;;;;;;5025465;28;20287;-71
2024/02/20 05:44:07;;;;;;;12.10;3.97;;;7.80;80.90;;;;;;5030433;28;20415;-71
2024/02/20 05:46:34;;;;;;;16.67;3.00;;;7.80;80.90;;;;;;5031334;28;20221;-71
2024/02/20 05:49:00;;;;;;;9.80;3.03;;;7.80;80.90;;;;;;5030508;28;20189;-71
2024/02/20 05:51:27;;;;;;;13.33;3.47;;;7.80;80.80;;;;;;5031773;28;20835;-73
2024/02/20 05:53:53;;;;;;;11.03;3.70;;;7.80;80.80;;;;;;5035879;28;20986;-72
2024/02/20 05:56:19;;;;;;;11.57;3.00;;;7.80;80.50;;;;;;5036168;28;20412;-73
2024/02/20 05:58:45;;;;;;;15.20;2.73;;;7.80;80.50;;;;;;5038634;28;20416;-74
2024/02/20 06:01:11;;;;;;;8.10;2.97;;;7.80;80.00;;;;;;5033720;28;21428;-73
2024/02/20 06:03:38;;;;;;;13.37;3.47;;;7.80;80.20;;;;;;5051058;28;20503;-72
2024/02/20 06:06:07;;;;;;;14.13;3.00;;;7.80;80.30;;;;;;5043004;28;20205;-72
2024/02/20 06:08:34;;;;;;;9.83;3.30;;;7.80;80.20;;;;;;5031105;28;20495;-71
2024/02/20 06:10:59;;;;;;;9.50;3.27;;;7.90;80.30;;;;;;5022880;28;20472;-71
2024/02/20 06:13:25;;;;;;;6.07;2.53;;;7.90;79.70;;;;;;5031841;28;20422;-72
2024/02/20 06:15:51;;;;;;;14.17;3.23;;;7.90;80.00;;;;;;5034521;28;20653;-73
2024/02/20 06:18:16;;;;;;;13.40;3.23;;;7.80;80.00;;;;;;5030988;28;20239;-72
2024/02/20 06:20:45;;;;;;;9.50;3.77;;;7.90;80.20;;;;;;5026765;28;20268;-73
2024/02/20 06:23:11;;;;;;;17.73;3.00;;;7.80;80.00;;;;;;5031892;28;20217;-73
2024/02/20 06:25:37;;;;;;;16.40;3.20;;;7.80;80.50;;;;;;5030249;28;20486;-73
2024/02/20 06:28:03;;;;;;;6.87;2.43;;;7.80;81.10;;;;;;5030576;28;20787;-70
2024/02/20 06:30:29;;;;;;;14.37;2.97;;;7.70;81.40;;;;;;5027677;28;20201;-74
2024/02/20 06:32:55;;;;;;;12.20;3.50;;;7.60;81.20;;;;;;5028999;28;20499;-72
2024/02/20 06:35:20;;;;;;;12.23;3.70;;;7.60;81.50;;;;;;5035369;28;20490;-73
2024/02/20 06:37:46;;;;;;;7.90;3.10;;;7.60;81.50;;;;;;5030321;28;20177;-73
2024/02/20 06:40:11;;;;;;;10.53;2.60;;;7.60;81.40;;;;;;5029076;28;20205;-77
2024/02/20 06:42:38;;;;;;;10.43;3.70;;;7.60;81.50;;;;;;5032039;28;20184;-72
2024/02/20 06:45:04;;;;;;;6.23;2.90;;;7.50;81.70;;;;;;5036865;28;20419;-75
2024/02/20 06:47:29;;;;;;;13.80;3.57;;;7.50;82.40;;;;;;5031276;28;21039;-74
2024/02/20 06:49:55;;;;;;;5.50;3.27;;;7.50;82.40;;;;;;5034205;28;20440;-74
2024/02/20 06:52:20;;;;;;;18.03;3.37;;;7.50;82.20;;;;;;5033641;28;20255;-72
2024/02/20 06:54:46;;;;;;;11.17;2.90;;;7.50;82.10;;;;;;5036086;28;20181;-73
2024/02/20 06:57:12;;;;;;;8.63;3.23;;;7.50;81.90;;;;;;5031840;28;20239;-73
2024/02/20 06:59:39;;;;;;;16.23;4.40;;;7.50;81.90;;;;;;5034111;28;20180;-72
2024/02/20 07:02:04;;;;;;;15.03;3.73;;;7.60;81.50;;;;;;5027402;28;20236;-73
2024/02/20 07:04:30;;;;;;;9.30;2.90;;;7.60;81.20;;;;;;5035056;28;20911;-72
2024/02/20 07:06:56;;;;;;;8.53;3.33;;;7.60;81.20;;;;;;5035487;28;20525;-73
2024/02/20 07:09:22;;;;;;;11.50;3.40;;;7.60;81.10;;;;;;5041114;28;20236;-72
2024/02/20 07:11:49;;;;;;;16.13;3.60;;;7.60;81.10;;;;;;5029893;28;20683;-73
2024/02/20 07:14:15;;;;;;;11.90;3.03;;;7.70;81.20;;;;;;5034834;28;20470;-71
2024/02/20 07:16:44;;;;;;;9.23;3.30;;;7.70;80.20;;;;;;5030341;28;20431;-72
2024/02/20 07:19:10;;;;;;;10.57;3.23;;;7.70;80.80;;;;;;5029989;28;20421;-73
2024/02/20 07:21:36;;;;;;;15.10;3.20;;;7.70;80.20;;;;;;5028103;28;20450;-72
2024/02/20 07:24:03;;;;;;;9.47;3.40;;;7.60;80.50;;;;;;5031854;28;20792;-73
2024/02/20 07:26:29;;;;;;;8.63;3.30;;;7.70;80.90;;;;;;5029058;28;20213;-72
2024/02/20 07:28:55;;;;;;;10.93;3.13;;;7.60;80.90;;;;;;5028991;28;20416;-72
2024/02/20 07:31:24;;;;;;;14.00;3.20;;;7.60;80.90;;;;;;5026866;28;20551;-74
2024/02/20 07:33:50;;;;;;;7.57;3.23;;;7.70;80.60;;;;;;5036693;28;20419;-73
2024/02/20 07:36:16;;;;;;;13.10;3.07;;;7.70;80.60;;;;;;5030152;28;20566;-73
2024/02/20 07:38:43;;;;;;;12.97;3.27;;;7.70;80.50;;;;;;5029712;28;20434;-70
2024/02/20 07:41:09;;;;;;;14.53;3.63;;;7.70;79.90;;;;;;5027310;28;20693;-74
2024/02/20 07:43:36;;;;;;;13.80;4.17;;;7.70;80.30;;;;;;5033312;28;20431;-73
2024/02/20 07:46:02;;;;;;;7.77;3.70;;;7.80;80.50;;;;;;5031105;28;20471;-73
2024/02/20 07:48:27;;;;;;;15.17;3.40;;;7.90;80.00;;;;;;5030888;28;20534;-73
2024/02/20 07:50:53;;;;;;;11.67;3.60;;;7.90;79.70;;;;;;5028650;28;20521;-72
2024/02/20 07:53:18;;;;;;;12.53;3.57;;;8.00;79.20;;;;;;5029244;28;20193;-72
2024/02/20 07:55:44;;;;;;;14.10;4.23;;;8.00;79.00;;;;;;5032381;28;20264;-71
2024/02/20 07:58:10;;;;;;;10.60;3.27;;;8.10;78.60;;;;;;5031997;28;20189;-74
2024/02/20 08:00:36;;;;;;;10.30;4.00;;;8.00;78.60;;;;;;5031434;28;20587;-74
2024/02/20 08:03:02;;;;;;;10.00;3.10;;;8.10;78.60;;;;;;5041449;28;20205;-72
2024/02/20 08:05:27;;;;;;;11.17;3.30;;;8.00;78.60;;;;;;5041735;28;20466;-71
2024/02/20 08:07:54;;;;;;;9.93;3.90;;;8.10;78.60;;;;;;5041665;28;20469;-73
2024/02/20 08:10:20;;;;;;;13.00;3.27;;;8.10;78.60;;;;;;5030236;28;20189;-71
2024/02/20 08:12:45;;;;;;;12.17;3.73;;;8.00;78.40;;;;;;5027163;28;21157;-71
2024/02/20 08:15:11;;;;;;;10.50;3.33;;;8.10;78.70;;;;;;5031582;28;20215;-73
2024/02/20 08:17:37;;;;;;;9.80;3.30;;;8.20;78.10;;;;;;5032435;28;20188;-71
2024/02/20 08:20:06;;;;;;;9.60;3.40;;;8.30;77.60;;;;;;5032433;28;20683;-72
2024/02/20 08:22:32;;;;;;;12.97;4.47;;;8.20;77.10;;;;;;5027593;28;20186;-72
2024/02/20 08:24:58;;;;;;;9.20;3.30;;;8.20;77.10;;;;;;5030623;28;20469;-72
2024/02/20 08:27:24;;;;;;;9.43;3.63;;;8.30;76.80;;;;;;5032465;28;20518;-72
2024/02/20 08:29:50;;;;;;;8.80;3.20;;;8.40;77.00;;;;;;5034081;28;20189;-73
2024/02/20 08:32:16;;;;;;;11.97;3.70;;;8.40;76.80;;;;;;5032879;28;20480;-74
2024/02/20 08:34:42;;;;;;;13.50;3.80;;;8.60;76.50;;;;;;5034902;28;20452;-71
2024/02/20 08:37:08;;;;;;;14.40;4.30;;;8.50;76.20;;;;;;5036192;28;20184;-72
2024/02/20 08:39:33;;;;;;;9.40;3.40;;;8.50;76.40;;;;;;5034005;28;20424;-73
2024/02/20 08:41:59;;;;;;;11.53;3.50;;;8.50;75.90;;;;;;5030668;28;20209;-72
2024/02/20 08:44:24;;;;;;;8.77;3.23;;;8.40;76.50;;;;;;5033101;28;20188;-73
2024/02/20 08:46:50;;;;;;;10.43;3.67;;;8.50;76.70;;;;;;5034338;28;20267;-72
2024/02/20 08:49:16;;;;;;;14.73;4.33;;;8.40;76.70;;;;;;5033651;28;20279;-74
2024/02/20 08:51:42;;;;;;;10.73;3.77;;;8.50;76.70;;;;;;5035812;28;20574;-72
2024/02/20 08:54:08;;;;;;;10.87;3.33;;;8.50;76.10;;;;;;5036141;28;20438;-73
2024/02/20 08:56:33;;;;;;;13.60;3.70;;;8.70;75.70;;;;;;5032154;28;20416;-72
2024/02/20 08:58:59;;;;;;;15.77;4.87;;;8.70;75.40;;;;;;5031403;28;20216;-73
2024/02/20 09:01:25;;;;;;;16.50;3.90;;;8.80;75.50;;;;;;5033622;28;20266;-73
2024/02/20 09:03:56;;;;;;;12.20;3.60;;;8.90;75.20;;;;;;5043108;28;20222;-71
2024/02/20 09:06:22;;;;;;;13.20;4.00;;;8.90;74.60;;;;;;5031670;28;20287;-71
2024/02/20 09:08:48;;;;;;;12.87;3.80;;;8.80;75.10;;;;;;5032011;28;20520;-72
2024/02/20 09:11:13;;;;;;;17.03;3.90;;;8.90;75.50;;;;;;5028957;28;20259;-72
2024/02/20 09:13:39;;;;;;;13.47;3.80;;;9.00;75.40;;;;;;5039971;28;20239;-74
2024/02/20 09:16:05;;;;;;;8.00;3.63;;;8.90;74.80;;;;;;5035798;28;20196;-73
2024/02/20 09:18:37;;;;;;;19.20;4.20;;;9.10;74.20;;;;;;5028402;28;20531;-73
2024/02/20 09:21:04;;;;;;;8.40;3.70;;;9.30;73.90;;;;;;5025090;28;20205;-72
2024/02/20 09:23:32;;;;;;;11.63;4.13;;;9.30;73.20;;;;;;5034544;28;21063;-73
2024/02/20 09:25:58;;;;;;;10.43;3.80;;;9.10;73.00;;;;;;5029999;28;20455;-72
2024/02/20 09:28:23;;;;;;;20.03;4.63;;;9.00;72.70;;;;;;5034830;28;20946;-74
2024/02/20 09:30:49;;;;;;;10.40;4.37;;;9.00;73.30;;;;;;5027113;28;20202;-73
2024/02/20 09:33:18;;;;;;;10.10;3.90;;;9.20;73.70;;;;;;5042387;28;20231;-73
2024/02/20 09:35:43;;;;;;;13.00;4.00;;;9.30;73.00;;;;;;5034168;28;20246;-73
2024/02/20 09:38:09;;;;;;;13.83;5.30;;;9.40;72.90;;;;;;5031620;28;20503;-76
2024/02/20 09:40:35;;;;;;;14.80;4.47;;;9.50;72.30;;;;;;5030156;28;20205;-73
2024/02/20 09:43:02;;;;;;;13.23;3.50;;;9.50;72.30;;;;;;5029799;28;20455;-73
2024/02/20 09:45:28;;;;;;;17.37;5.90;;;9.70;71.70;;;;;;5031651;28;20217;-72
2024/02/20 09:47:54;;;;;;;10.50;3.53;;;9.70;71.70;;;;;;5037098;28;20439;-73
2024/02/20 09:50:20;;;;;;;14.90;4.13;;;9.90;72.00;;;;;;5032757;28;20420;-72
2024/02/20 09:52:52;;;;;;;8.37;4.43;;;10.10;71.40;;;;;;5030323;28;20439;-73
2024/02/20 09:55:18;;;;;;;11.47;4.57;;;10.10;70.40;;;;;;5032321;28;20462;-73
2024/02/20 09:57:44;;;;;;;11.30;4.20;;;10.10;69.90;;;;;;5036814;28;20430;-72
2024/02/20 10:00:11;;;;;;;9.07;4.10;;;10.20;69.50;;;;;;5035091;28;20428;-73
2024/02/20 10:02:38;;;;;;;17.73;5.00;;;10.10;69.70;;;;;;5033739;28;20435;-72
2024/02/20 10:05:05;;;;;;;20.47;4.80;;;9.80;70.70;;;;;;5031992;28;20424;-73
2024/02/20 10:07:35;;;;;;;17.47;5.00;;;9.80;70.70;;;;;;5036567;28;20522;-73
2024/02/20 10:10:04;;;;;;;13.90;4.80;;;9.70;70.70;;;;;;5036143;28;20459;-72
2024/02/20 10:12:29;;;;;;;15.77;4.10;;;9.50;70.70;;;;;;5030067;28;20508;-73
2024/02/20 10:14:55;;;;;;;15.70;4.57;;;9.20;71.40;;;;;;5031351;28;20428;-72
2024/02/20 10:17:22;;;;;;;15.97;4.27;;;9.30;71.70;;;;;;5035984;28;20277;-74
2024/02/20 10:19:48;;;;;;;11.50;4.90;;;9.30;71.80;;;;;;5031057;28;20200;-73
2024/02/20 10:22:23;;;;;;;20.17;4.77;;;9.20;72.10;;;;;;5029117;28;20460;-70
2024/02/20 10:24:50;;;;;;;20.50;4.97;;;9.20;72.00;;;;;;5036079;28;20688;-72
2024/02/20 10:27:15;;;;;;;15.73;4.27;;;9.30;71.60;;;;;;5027776;28;20461;-71
2024/02/20 10:29:41;;;;;;;17.53;4.20;;;9.10;71.10;;;;;;5035183;28;20440;-72
2024/02/20 10:32:07;;;;;;;13.13;4.33;;;9.20;71.40;;;;;;5024674;28;20266;-74
2024/02/20 10:34:33;;;;;;;17.30;5.13;;;9.00;71.40;;;;;;5040481;28;20428;-72
2024/02/20 10:37:05;;;;;;;14.90;4.60;;;9.00;72.30;;;;;;5031401;28;20177;-73
2024/02/20 10:39:31;;;;;;;13.80;4.10;;;9.30;71.30;;;;;;5030092;28;20549;-73
2024/02/20 10:42:00;;;;;;;11.40;4.60;;;9.30;70.70;;;;;;5028145;28;20466;-70
2024/02/20 10:44:29;;;;;;;9.70;4.20;;;9.20;71.00;;;;;;5037632;28;20516;-73
2024/02/20 10:46:57;;;;;;;13.00;3.77;;;9.30;71.00;;;;;;5025059;28;20558;-72
2024/02/20 10:49:33;;;;;;;10.97;3.47;;;9.50;70.20;;;;;;5031390;28;20419;-72
2024/02/20 10:52:04;;;;;;;24.17;5.03;;;9.70;69.40;;;;;;5027963;28;20580;-72
2024/02/20 10:54:32;;;;;;;17.10;4.20;;;9.70;68.50;;;;;;5038040;28;20431;-72
2024/02/20 10:56:58;;;;;;;15.33;4.10;;;9.90;69.10;;;;;;5040612;28;20485;-71
2024/02/20 10:59:27;;;;;;;12.60;3.80;;;9.70;67.90;;;;;;5041789;28;20424;-73
2024/02/20 11:01:52;;;;;;;14.80;4.50;;;9.70;68.20;;;;;;5036654;28;21014;-72
2024/02/20 11:04:18;;;;;;;16.40;3.67;;;9.80;68.00;;;;;;5028852;28;20499;-72
2024/02/20 11:06:48;;;;;;;15.77;3.80;;;9.70;68.00;;;;;;5024870;28;20225;-73
2024/02/20 11:09:13;;;;;;;9.60;4.47;;;9.50;68.30;;;;;;5027853;28;20422;-70
2024/02/20 11:11:39;;;;;;;12.23;3.60;;;9.50;68.80;;;;;;5026636;28;20534;-71
2024/02/20 11:14:07;;;;;;;12.73;4.10;;;9.60;69.20;;;;;;5030073;28;20181;-71
2024/02/20 11:16:37;;;;;;;11.70;4.37;;;9.70;68.60;;;;;;5029630;28;20420;-73
2024/02/20 11:19:03;;;;;;;10.90;3.50;;;9.60;68.20;;;;;;5027144;28;20779;-72
2024/02/20 11:21:33;;;;;;;9.40;3.67;;;9.90;67.90;;;;;;5026396;28;20461;-71
2024/02/20 11:24:14;;;;;;;7.63;3.30;;;10.20;66.70;;;;;;5030851;28;20275;-74
2024/02/20 11:26:41;;;;;;;12.47;3.27;;;10.60;66.30;;;;;;5030297;28;20463;-75
2024/02/20 11:29:07;;;;;;;10.57;3.63;;;11.10;65.70;;;;;;5030270;28;20446;-75
2024/02/20 11:31:33;;;;;;;9.80;3.50;;;11.40;64.40;;;;;;5027939;28;20848;-74
2024/02/20 11:34:00;;;;;;;15.90;4.60;;;11.70;63.40;;;;;;5036145;28;20231;-72
2024/02/20 11:36:26;;;;;;;8.40;2.87;;;12.40;63.10;;;;;;5031103;28;20255;-72
2024/02/20 11:39:03;;;;;;;10.27;3.70;;;12.50;62.80;;;;;;5030020;28;20920;-73
2024/02/20 11:41:29;;;;;;;13.93;3.37;;;12.70;61.30;;;;;;5028449;28;20470;-71
2024/02/20 11:44:03;;;;;;;17.63;3.60;;;12.60;61.70;;;;;;5033002;28;20425;-74
2024/02/20 11:46:29;;;;;;;12.47;3.40;;;11.90;62.90;;;;;;5035748;28;20508;-73
2024/02/20 11:48:55;;;;;;;10.33;4.70;;;11.40;65.10;;;;;;5034311;28;20779;-73
2024/02/20 11:51:21;;;;;;;12.80;4.47;;;11.00;66.10;;;;;;5030372;28;21040;-73
2024/02/20 11:53:54;;;;;;;13.13;4.30;;;10.30;66.70;;;;;;5044303;28;20199;-73
2024/02/20 11:56:20;;;;;;;10.87;3.53;;;10.50;67.60;;;;;;5040988;28;20427;-73
2024/02/20 11:58:45;;;;;;;13.80;3.60;;;10.40;67.30;;;;;;5041499;28;20455;-73
2024/02/20 12:01:14;;;;;;;14.73;4.37;;;10.60;67.50;;;;;;5039205;28;20217;-72
2024/02/20 12:03:42;;;;;;;11.33;3.53;;;11.10;67.30;;;;;;5043298;28;20672;-73
2024/02/20 12:06:09;;;;;;;8.57;3.50;;;11.20;66.90;;;;;;5034168;28;20466;-73
2024/02/20 12:08:44;;;;;;;10.87;3.27;;;11.40;64.70;;;;;;5034321;28;20412;-74
2024/02/20 12:11:13;;;;;;;11.63;4.17;;;11.60;64.80;;;;;;5029208;28;20448;-72
2024/02/20 12:13:40;;;;;;;11.50;3.13;;;11.60;65.60;;;;;;5048566;28;20927;-72
2024/02/20 12:16:16;;;;;;;6.73;2.93;;;11.60;64.40;;;;;;5037551;28;20408;-73
2024/02/20 12:18:46;;;;;;;13.83;3.90;;;11.10;64.20;;;;;;5033240;28;20907;-73
2024/02/20 12:21:11;;;;;;;9.80;3.20;;;11.20;65.40;;;;;;5023649;28;20563;-72
2024/02/20 12:23:38;;;;;;;8.83;4.23;;;11.20;66.00;;;;;;5035802;28;20526;-73
2024/02/20 12:26:05;;;;;;;7.70;3.17;;;11.00;66.40;;;;;;5032486;28;20209;-72
2024/02/20 12:28:30;;;;;;;7.77;3.80;;;10.90;66.70;;;;;;5034063;28;20514;-73
2024/02/20 12:30:56;;;;;;;12.40;3.90;;;11.10;66.90;;;;;;5027254;28;20536;-74
2024/02/20 12:33:22;;;;;;;11.23;3.67;;;10.80;66.40;;;;;;5038922;28;20860;-72
2024/02/20 12:35:47;;;;;;;15.70;3.77;;;10.60;67.00;;;;;;5032251;28;20227;-71
2024/02/20 12:38:13;;;;;;;10.27;3.17;;;10.60;67.20;;;;;;5036218;28;20479;-74
2024/02/20 12:40:38;;;;;;;4.53;2.87;;;10.70;66.70;;;;;;5033625;28;20220;-72
2024/02/20 12:43:04;;;;;;;9.10;3.90;;;10.60;66.10;;;;;;5035897;28;20185;-72
2024/02/20 12:45:29;;;;;;;14.73;3.10;;;10.60;66.30;;;;;;5032026;28;20264;-71
2024/02/20 12:47:55;;;;;;;12.37;4.33;;;10.50;66.00;;;;;;5032090;28;20185;-72